createdAt,value
2023-02-25T00:03:20.511Z,2.41
2023-02-25T00:08:27.829Z,2.46
2023-02-25T00:13:36.504Z,2.51
2023-02-25T00:18:47.115Z,2.56
2023-02-25T00:23:56.851Z,2.58
2023-02-25T00:29:06.287Z,2.58
2023-02-25T00:34:15.142Z,2.56
2023-02-25T00:39:24.192Z,2.51
2023-02-25T00:44:31.395Z,2.48
2023-02-25T00:49:39.103Z,2.47
2023-02-25T00:54:46.351Z,2.51
2023-02-25T00:59:52.751Z,2.57
2023-02-25T01:04:59.986Z,2.65
2023-02-25T01:10:08.362Z,2.70
2023-02-25T01:15:16.714Z,2.70
2023-02-25T01:20:25.011Z,2.65
2023-02-25T01:25:32.246Z,2.59
2023-02-25T01:30:40.560Z,2.57
2023-02-25T01:35:48.284Z,2.57
2023-02-25T01:41:02.556Z,2.62
2023-02-25T01:46:09.839Z,2.67
2023-02-25T01:51:17.139Z,2.68
2023-02-25T01:56:27.037Z,2.66
2023-02-25T02:01:37.899Z,2.59
2023-02-25T02:06:48.412Z,2.57
2023-02-25T02:11:58.877Z,2.58
2023-02-25T02:17:19.702Z,2.61
2023-02-25T02:22:38.187Z,2.62
2023-02-25T02:28:02.250Z,2.61
2023-02-25T02:33:17.679Z,2.57
2023-02-25T02:38:31.691Z,2.53
2023-02-25T02:43:46.470Z,2.52
2023-02-25T02:48:59.730Z,2.53
2023-02-25T02:54:12.624Z,2.58
2023-02-25T02:59:25.994Z,2.61
2023-02-25T03:04:37.760Z,2.58
2023-02-25T03:09:51.907Z,2.53
2023-02-25T03:14:59.282Z,2.47
2023-02-25T03:20:18.243Z,2.41
2023-02-25T03:25:32.079Z,2.39
2023-02-25T03:30:46.168Z,2.43
2023-02-25T03:35:56.611Z,2.42
2023-02-25T03:41:08.459Z,2.39
2023-02-25T03:46:17.767Z,2.32
2023-02-25T03:51:34.544Z,2.24
2023-02-25T03:56:47.927Z,2.21
2023-02-25T04:01:57.316Z,2.23
2023-02-25T04:07:04.906Z,2.28
2023-02-25T04:12:12.147Z,2.33
2023-02-25T04:17:19.491Z,2.33
2023-02-25T04:22:27.170Z,2.33
2023-02-25T04:27:35.338Z,2.29
2023-02-25T04:32:42.643Z,2.30
2023-02-25T04:37:49.946Z,2.35
2023-02-25T04:42:57.184Z,2.42
2023-02-25T04:48:04.545Z,2.46
2023-02-25T04:53:11.843Z,2.46
2023-02-25T04:58:19.116Z,2.44
2023-02-25T05:03:26.763Z,2.42
2023-02-25T05:08:34.341Z,2.43
2023-02-25T05:13:42.916Z,2.47
2023-02-25T05:18:51.013Z,2.53
2023-02-25T05:23:58.509Z,2.62
2023-02-25T05:29:06.986Z,2.65
2023-02-25T05:34:14.681Z,2.63
2023-02-25T05:39:21.984Z,2.61
2023-02-25T05:44:29.224Z,2.63
2023-02-25T05:49:36.586Z,2.69
2023-02-25T05:54:46.601Z,2.72
2023-02-25T05:59:53.916Z,2.71
2023-02-25T06:05:01.423Z,2.68
2023-02-25T06:10:10.507Z,2.67
2023-02-25T06:15:18.028Z,2.70
2023-02-25T06:20:28.147Z,2.75
2023-02-25T06:25:35.519Z,2.83
2023-02-25T06:30:46.280Z,2.88
2023-02-25T06:35:57.102Z,2.88
2023-02-25T06:41:09.447Z,2.84
2023-02-25T06:46:17.439Z,2.84
2023-02-25T06:51:26.044Z,2.89
2023-02-25T06:56:35.630Z,2.96
2023-02-25T07:01:43.385Z,3.02
2023-02-25T07:06:51.010Z,3.06
2023-02-25T07:11:58.614Z,3.09
2023-02-25T07:17:06.034Z,3.12
2023-02-25T07:22:16.626Z,3.15
2023-02-25T07:27:25.207Z,3.19
2023-02-25T07:32:33.405Z,3.20
2023-02-25T07:37:40.991Z,3.19
2023-02-25T07:42:50.923Z,3.17
2023-02-25T07:48:01.960Z,3.13
2023-02-25T07:53:08.034Z,3.10
2023-02-25T07:58:15.751Z,3.08
2023-02-25T08:03:27.385Z,3.06
2023-02-25T08:08:34.659Z,3.06
2023-02-25T08:13:43.097Z,3.09
2023-02-25T08:18:53.135Z,3.15
2023-02-25T08:24:01.715Z,3.21
2023-02-25T08:29:09.077Z,3.31
2023-02-25T08:34:16.398Z,3.36
2023-02-25T08:39:23.998Z,3.37
2023-02-25T08:44:31.245Z,3.40
2023-02-25T08:49:37.596Z,3.39
2023-02-25T08:54:44.855Z,3.43
2023-02-25T08:59:52.448Z,3.48
2023-02-25T09:04:59.904Z,3.58
2023-02-25T09:10:13.935Z,3.65
2023-02-25T09:15:21.888Z,3.65
2023-02-25T09:20:30.511Z,3.62
2023-02-25T09:25:36.129Z,3.53
2023-02-25T09:30:46.034Z,3.41
2023-02-25T09:35:53.968Z,3.29
2023-02-25T09:41:14.344Z,3.24
2023-02-25T09:47:06.695Z,3.24
2023-02-25T10:00:16.425Z,3.42
2023-02-25T10:02:37.353Z,3.34
2023-02-25T10:13:32.693Z,3.30
2023-02-25T10:19:03.476Z,3.33
2023-02-25T10:24:23.956Z,3.39
2023-02-25T10:29:38.435Z,3.47
2023-02-25T10:34:46.949Z,3.50
2023-02-25T10:39:55.900Z,3.54
2023-02-25T10:45:15.592Z,3.58
2023-02-25T10:50:42.871Z,3.62
2023-02-25T10:55:56.628Z,3.64
2023-02-25T11:01:09.337Z,3.67
2023-02-25T11:06:23.749Z,3.69
2023-02-25T11:11:33.260Z,3.76
2023-02-25T11:16:43.688Z,3.83
2023-02-25T11:21:51.288Z,3.85
2023-02-25T11:26:58.848Z,3.85
2023-02-25T11:32:13.654Z,3.78
2023-02-25T11:37:37.369Z,3.73
2023-02-25T11:42:45.495Z,3.77
2023-02-25T11:47:52.762Z,3.86
2023-02-25T11:53:16.442Z,3.90
2023-02-25T11:58:38.811Z,3.93
2023-02-25T12:04:01.654Z,3.88
2023-02-25T12:09:44.990Z,3.83
2023-02-25T12:15:37.402Z,3.80
2023-02-25T12:21:20.186Z,3.79
2023-02-25T12:26:44.344Z,3.86
2023-02-25T12:32:28.077Z,3.93
2023-02-25T12:37:59.470Z,3.98
2023-02-25T12:43:26.034Z,3.96
2023-02-25T12:49:03.873Z,4.00
2023-02-25T12:54:29.376Z,4.04
2023-02-25T12:59:53.869Z,4.06
2023-02-25T13:05:22.909Z,4.07
2023-02-25T13:10:41.237Z,4.01
2023-02-25T13:15:57.825Z,3.93
2023-02-25T13:21:24.246Z,3.80
2023-02-25T13:26:52.362Z,3.72
2023-02-25T13:32:19.255Z,3.71
2023-02-25T13:37:41.304Z,3.72
2023-02-25T13:43:04.685Z,3.70
2023-02-25T13:48:35.221Z,3.68
2023-02-25T13:54:08.054Z,3.69
2023-02-25T13:59:24.181Z,3.74
2023-02-25T14:04:53.463Z,3.75
2023-02-25T14:10:17.484Z,3.74
2023-02-25T14:15:39.626Z,3.75
2023-02-25T14:20:59.247Z,3.71
2023-02-25T14:26:24.309Z,3.61
2023-02-25T14:31:38.872Z,3.50
2023-02-25T14:37:01.164Z,3.39
2023-02-25T14:42:34.186Z,3.27
2023-02-25T14:47:48.712Z,3.16
2023-02-25T14:53:26.883Z,3.10
2023-02-25T14:59:00.247Z,3.06
2023-02-25T15:04:41.089Z,3.02
2023-02-25T15:10:27.199Z,2.95
2023-02-25T15:16:04.713Z,2.85
2023-02-25T15:21:30.960Z,2.78
2023-02-25T15:26:53.169Z,2.72
2023-02-25T15:32:23.518Z,2.70
2023-02-25T15:37:36.552Z,2.62
2023-02-25T15:42:49.947Z,2.54
2023-02-25T15:48:25.626Z,2.43
2023-02-25T15:53:45.119Z,2.27
2023-02-25T15:58:56.337Z,2.18
2023-02-25T16:04:08.887Z,2.12
2023-02-25T16:09:18.923Z,2.07
2023-02-25T16:14:30.071Z,1.98
2023-02-25T16:19:40.244Z,1.90
2023-02-25T16:24:50.359Z,1.85
2023-02-25T16:30:08.834Z,1.81
2023-02-25T16:35:23.410Z,1.82
2023-02-25T16:40:35.103Z,1.85
2023-02-25T16:45:46.189Z,1.83
2023-02-25T16:50:55.046Z,1.82
2023-02-25T16:56:02.865Z,1.76
2023-02-25T17:01:25.328Z,1.64
2023-02-25T17:06:32.802Z,1.51
2023-02-25T17:11:40.217Z,1.45
2023-02-25T17:16:48.093Z,1.42
2023-02-25T17:21:55.338Z,1.42
2023-02-25T17:27:03.369Z,1.43
2023-02-25T17:32:22.396Z,1.43
2023-02-25T17:37:32.701Z,1.38
2023-02-25T17:42:40.728Z,1.32
2023-02-25T17:47:46.418Z,1.27
2023-02-25T17:52:53.718Z,1.24
2023-02-25T17:58:02.700Z,1.22
2023-02-25T18:03:21.301Z,1.19
2023-02-25T18:08:30.020Z,1.12
2023-02-25T18:13:39.875Z,1.00
2023-02-25T18:18:50.801Z,0.89
2023-02-25T18:23:58.649Z,0.82
2023-02-25T18:29:07.795Z,0.79
2023-02-25T18:34:15.217Z,0.78
2023-02-25T18:39:23.774Z,0.74
2023-02-25T18:44:31.011Z,0.67
2023-02-25T18:49:38.506Z,0.57
2023-02-25T18:54:46.320Z,0.47
2023-02-25T18:59:54.372Z,0.37
2023-02-25T19:05:00.760Z,0.27
2023-02-25T19:10:10.759Z,0.21
2023-02-25T19:15:20.244Z,0.20
2023-02-25T19:20:27.546Z,0.23
2023-02-25T19:25:37.652Z,0.24
2023-02-25T19:30:48.106Z,0.19
2023-02-25T19:35:55.397Z,0.11
2023-02-25T19:41:07.352Z,-0.01
2023-02-25T19:46:17.438Z,-0.15
2023-02-25T19:51:24.766Z,-0.28
2023-02-25T19:56:32.145Z,-0.35
2023-02-25T20:01:40.033Z,-0.37
2023-02-25T20:06:47.247Z,-0.37
2023-02-25T20:11:54.617Z,-0.39
2023-02-25T20:17:02.079Z,-0.45
2023-02-25T20:22:10.009Z,-0.52
2023-02-25T20:27:18.252Z,-0.61
2023-02-25T20:32:32.160Z,-0.70
2023-02-25T20:37:46.785Z,-0.73
2023-02-25T20:42:54.492Z,-0.71
2023-02-25T20:48:02.664Z,-0.64
2023-02-25T20:53:10.528Z,-0.58
2023-02-25T20:58:16.149Z,-0.56
2023-02-25T21:03:23.325Z,-0.58
2023-02-25T21:08:30.540Z,-0.63
2023-02-25T21:13:37.776Z,-0.68
2023-02-25T21:18:46.006Z,-0.72
2023-02-25T21:23:53.138Z,-0.67
2023-02-25T21:29:00.339Z,-0.54
2023-02-25T21:34:09.361Z,-0.39
2023-02-25T21:39:16.606Z,-0.25
2023-02-25T21:44:23.961Z,-0.15
2023-02-25T21:49:31.899Z,-0.11
2023-02-25T21:54:39.280Z,-0.08
2023-02-25T21:59:46.482Z,-0.06
2023-02-25T22:04:53.691Z,-0.04
2023-02-25T22:10:01.328Z,0.02
2023-02-25T22:15:09.955Z,0.10
2023-02-25T22:20:18.044Z,0.15
2023-02-25T22:25:25.273Z,0.15
2023-02-25T22:30:32.492Z,0.10
2023-02-25T22:35:39.954Z,0.02
2023-02-25T22:40:47.164Z,-0.05
2023-02-25T22:45:54.422Z,-0.10
2023-02-25T22:51:01.605Z,-0.10
2023-02-25T22:56:11.633Z,-0.05
2023-02-25T23:01:20.770Z,0.01
2023-02-25T23:06:42.922Z,0.03
2023-02-25T23:11:51.028Z,-0.01
2023-02-25T23:16:58.522Z,-0.05
2023-02-25T23:22:27.819Z,-0.08
2023-02-25T23:27:35.628Z,-0.12
2023-02-25T23:32:43.063Z,-0.16
2023-02-25T23:37:50.830Z,-0.15
2023-02-25T23:42:58.297Z,-0.10
2023-02-25T23:48:05.642Z,-0.07
2023-02-25T23:53:13.109Z,-0.09
2023-02-25T23:58:20.316Z,-0.10
